createdAt,value
2022-10-11T00:00:47.674Z,16.13
2022-10-11T00:03:18.158Z,12.90
2022-10-11T00:05:45.154Z,9.20
2022-10-11T00:08:12.332Z,10.37
2022-10-11T00:10:39.326Z,14.27
2022-10-11T00:13:06.275Z,10.53
2022-10-11T00:15:33.513Z,10.73
2022-10-11T00:18:05.081Z,10.50
2022-10-11T00:20:33.853Z,7.10
2022-10-11T00:23:00.758Z,9.13
2022-10-11T00:25:27.603Z,11.23
2022-10-11T00:27:54.768Z,13.57
2022-10-11T00:30:21.717Z,12.00
2022-10-11T00:32:48.566Z,10.57
2022-10-11T00:35:15.488Z,11.47
2022-10-11T00:37:42.323Z,11.33
2022-10-11T00:40:11.211Z,12.07
2022-10-11T00:42:38.067Z,10.50
2022-10-11T00:45:23.661Z,14.40
2022-10-11T00:47:50.688Z,10.23
2022-10-11T00:50:18.156Z,8.97
2022-10-11T00:52:48.315Z,9.47
2022-10-11T00:55:17.659Z,10.63
2022-10-11T00:57:46.669Z,16.40
2022-10-11T01:00:14.396Z,8.20
2022-10-11T01:02:42.118Z,7.00
2022-10-11T01:05:28.217Z,17.50
2022-10-11T01:07:56.078Z,11.17
2022-10-11T01:10:22.885Z,10.77
2022-10-11T01:13:01.563Z,6.37
2022-10-11T01:15:28.391Z,11.47
2022-10-11T01:17:59.960Z,9.20
2022-10-11T01:21:05.500Z,12.47
2022-10-11T01:23:38.152Z,9.63
2022-10-11T01:26:10.689Z,9.10
2022-10-11T01:28:37.601Z,8.43
2022-10-11T01:31:08.981Z,13.27
2022-10-11T01:33:40.154Z,12.20
2022-10-11T01:36:09.957Z,10.63
2022-10-11T01:38:36.870Z,9.33
2022-10-11T01:41:06.324Z,12.57
2022-10-11T01:43:35.183Z,12.10
2022-10-11T01:46:04.422Z,12.37
2022-10-11T01:48:31.481Z,17.73
2022-10-11T01:50:59.611Z,14.17
2022-10-11T01:53:35.641Z,13.37
2022-10-11T01:56:17.748Z,11.50
2022-10-11T01:58:59.596Z,9.87
2022-10-11T02:01:31.010Z,10.20
2022-10-11T02:04:13.357Z,12.50
2022-10-11T02:06:47.514Z,8.27
2022-10-11T02:09:16.865Z,11.47
2022-10-11T02:11:43.781Z,14.70
2022-10-11T02:14:15.671Z,11.40
2022-10-11T02:16:45.380Z,10.20
2022-10-11T02:19:13.704Z,11.97
2022-10-11T02:21:42.624Z,10.50
2022-10-11T02:24:11.393Z,9.70
2022-10-11T02:26:40.819Z,9.43
2022-10-11T02:29:09.361Z,17.67
2022-10-11T02:31:36.637Z,12.50
2022-10-11T02:34:18.751Z,9.90
2022-10-11T02:36:45.539Z,11.27
2022-10-11T02:39:14.940Z,10.30
2022-10-11T02:41:43.348Z,7.10
2022-10-11T02:44:13.325Z,7.43
2022-10-11T02:46:41.009Z,15.77
2022-10-11T02:49:08.151Z,12.00
2022-10-11T02:51:36.476Z,9.27
2022-10-11T02:54:03.345Z,8.00
2022-10-11T02:56:30.123Z,9.40
2022-10-11T02:58:56.988Z,7.03
2022-10-11T03:01:23.974Z,8.87
2022-10-11T03:03:50.966Z,10.40
2022-10-11T03:06:17.906Z,9.50
2022-10-11T03:08:44.688Z,11.43
2022-10-11T03:11:11.549Z,10.13
2022-10-11T03:13:38.276Z,12.93
2022-10-11T03:16:05.186Z,14.23
2022-10-11T03:18:32.090Z,10.53
2022-10-11T03:20:58.860Z,11.73
2022-10-11T03:23:25.794Z,13.23
2022-10-11T03:25:52.583Z,11.77
2022-10-11T03:28:19.720Z,13.57
2022-10-11T03:30:50.339Z,12.03
2022-10-11T03:33:17.675Z,10.80
2022-10-11T03:35:48.276Z,13.97
2022-10-11T03:38:16.742Z,8.17
2022-10-11T03:40:44.163Z,10.03
2022-10-11T03:43:11.307Z,11.33
2022-10-11T03:45:38.454Z,9.87
2022-10-11T03:48:05.584Z,11.57
2022-10-11T03:50:32.399Z,12.67
2022-10-11T03:52:59.271Z,12.90
2022-10-11T03:55:26.079Z,9.93
2022-10-11T03:57:52.853Z,14.13
2022-10-11T04:00:20.137Z,14.53
2022-10-11T04:02:46.967Z,11.27
2022-10-11T04:05:13.872Z,10.97
2022-10-11T04:07:41.392Z,12.70
2022-10-11T04:10:08.460Z,14.20
2022-10-11T04:12:36.867Z,17.50
2022-10-11T04:15:03.914Z,11.57
2022-10-11T04:17:30.758Z,13.40
2022-10-11T04:19:57.507Z,15.63
2022-10-11T04:22:24.509Z,32.70
2022-10-11T04:24:51.256Z,23.57
2022-10-11T04:27:18.060Z,26.57
2022-10-11T04:29:45.382Z,30.97
2022-10-11T04:32:12.190Z,16.00
2022-10-11T04:34:39.021Z,19.17
2022-10-11T04:37:05.820Z,19.57
2022-10-11T04:39:32.601Z,22.70
2022-10-11T04:41:59.498Z,17.57
2022-10-11T04:44:26.291Z,21.23
2022-10-11T04:46:53.441Z,17.77
2022-10-11T04:49:20.301Z,11.80
2022-10-11T04:51:47.130Z,19.23
2022-10-11T04:54:14.193Z,14.00
2022-10-11T04:56:41.316Z,21.50
2022-10-11T04:59:08.080Z,19.70
2022-10-11T05:01:35.555Z,16.80
2022-10-11T05:04:02.411Z,13.17
2022-10-11T05:06:29.267Z,11.40
2022-10-11T05:08:56.069Z,14.63
2022-10-11T05:11:22.883Z,17.03
2022-10-11T05:13:49.874Z,18.97
2022-10-11T05:16:17.527Z,20.40
2022-10-11T05:18:44.800Z,14.73
2022-10-11T05:21:11.539Z,12.57
2022-10-11T05:23:38.315Z,13.80
2022-10-11T05:26:05.742Z,17.27
2022-10-11T05:28:33.058Z,13.60
2022-10-11T05:31:00.122Z,22.03
2022-10-11T05:33:27.343Z,21.50
2022-10-11T05:35:54.524Z,16.80
2022-10-11T05:38:21.275Z,20.60
2022-10-11T05:40:48.169Z,17.20
2022-10-11T05:43:15.132Z,16.27
2022-10-11T05:45:42.750Z,13.13
2022-10-11T05:48:10.193Z,15.77
2022-10-11T05:50:37.373Z,15.27
2022-10-11T05:53:04.911Z,15.57
2022-10-11T05:55:35.745Z,16.80
2022-10-11T05:58:02.651Z,14.77
2022-10-11T06:00:29.508Z,16.33
2022-10-11T06:02:56.570Z,17.57
2022-10-11T06:05:23.497Z,18.27
2022-10-11T06:07:50.259Z,17.93
2022-10-11T06:10:17.594Z,16.40
2022-10-11T06:12:44.459Z,14.97
2022-10-11T06:15:11.726Z,19.00
2022-10-11T06:17:38.514Z,17.00
2022-10-11T06:20:05.619Z,15.77
2022-10-11T06:22:32.417Z,16.23
2022-10-11T06:24:59.283Z,19.13
2022-10-11T06:27:26.158Z,15.53
2022-10-11T06:29:53.062Z,19.73
2022-10-11T06:32:19.939Z,15.73
2022-10-11T06:34:46.763Z,16.00
2022-10-11T06:37:13.584Z,21.17
2022-10-11T06:39:40.431Z,20.53
2022-10-11T06:42:07.362Z,19.70
2022-10-11T06:44:34.269Z,19.20
2022-10-11T06:47:01.146Z,19.10
2022-10-11T06:49:27.900Z,15.07
2022-10-11T06:51:54.847Z,13.90
2022-10-11T06:54:21.588Z,16.00
2022-10-11T06:56:48.671Z,16.17
2022-10-11T06:59:15.566Z,18.77
2022-10-11T07:01:42.928Z,14.67
2022-10-11T07:04:10.044Z,14.47
2022-10-11T07:06:38.525Z,13.70
2022-10-11T07:09:05.895Z,21.00
2022-10-11T07:11:32.897Z,16.10
2022-10-11T07:14:00.727Z,14.63
2022-10-11T07:16:27.824Z,14.07
2022-10-11T07:19:00.439Z,13.87
2022-10-11T07:21:28.169Z,15.43
2022-10-11T07:23:55.002Z,14.13
2022-10-11T07:26:21.869Z,16.70
2022-10-11T07:28:48.869Z,15.77
2022-10-11T07:31:18.033Z,21.77
2022-10-11T07:33:44.906Z,14.77
2022-10-11T07:36:12.318Z,12.80
2022-10-11T07:38:40.302Z,16.33
2022-10-11T07:41:07.235Z,12.57
2022-10-11T07:43:34.177Z,14.63
2022-10-11T07:46:04.735Z,13.97
2022-10-11T07:48:32.808Z,16.87
2022-10-11T07:51:03.639Z,16.90
2022-10-11T07:53:30.449Z,13.33
2022-10-11T07:55:59.967Z,14.73
2022-10-11T07:58:26.823Z,12.67
2022-10-11T08:00:54.254Z,14.60
2022-10-11T08:03:21.123Z,17.17
2022-10-11T08:05:47.997Z,17.00
2022-10-11T08:08:14.945Z,15.83
2022-10-11T08:10:41.763Z,16.37
2022-10-11T08:13:08.696Z,13.80
2022-10-11T08:15:35.475Z,13.17
2022-10-11T08:18:02.317Z,13.20
2022-10-11T08:20:31.284Z,9.33
2022-10-11T08:22:58.060Z,15.00
2022-10-11T08:25:24.957Z,13.27
2022-10-11T08:27:51.866Z,12.40
2022-10-11T08:30:18.700Z,14.50
2022-10-11T08:32:45.643Z,13.70
2022-10-11T08:35:12.571Z,15.27
2022-10-11T08:37:39.382Z,17.40
2022-10-11T08:40:06.796Z,11.40
2022-10-11T08:42:40.242Z,13.57
2022-10-11T08:45:17.110Z,10.03
2022-10-11T08:47:45.087Z,13.70
2022-10-11T08:50:30.202Z,15.40
2022-10-11T08:53:04.345Z,13.10
2022-10-11T08:55:40.010Z,12.50
2022-10-11T08:58:06.994Z,11.63
2022-10-11T09:00:35.685Z,10.43
2022-10-11T09:03:08.679Z,13.20
2022-10-11T09:05:39.764Z,13.07
2022-10-11T09:08:30.248Z,11.97
2022-10-11T09:11:11.415Z,10.63
2022-10-11T09:13:41.968Z,8.03
2022-10-11T09:16:15.001Z,9.80
2022-10-11T09:19:02.431Z,8.10
2022-10-11T09:21:35.187Z,10.23
2022-10-11T09:24:11.182Z,9.97
2022-10-11T09:26:43.756Z,10.53
2022-10-11T09:29:26.173Z,12.27
2022-10-11T09:31:54.985Z,9.73
2022-10-11T09:34:24.205Z,9.40
2022-10-11T09:37:00.341Z,10.87
2022-10-11T09:39:37.515Z,7.00
2022-10-11T09:42:07.200Z,11.73
2022-10-11T09:44:55.312Z,6.80
2022-10-11T09:47:24.729Z,5.77
2022-10-11T09:50:01.733Z,8.50
2022-10-11T09:52:28.633Z,7.43
2022-10-11T09:54:57.273Z,8.87
2022-10-11T09:57:25.751Z,7.93
2022-10-11T10:00:00.550Z,7.87
2022-10-11T10:02:29.047Z,7.00
2022-10-11T10:05:04.946Z,7.63
2022-10-11T10:07:32.507Z,8.80
2022-10-11T10:09:59.888Z,9.00
2022-10-11T10:12:30.684Z,11.50
2022-10-11T10:15:08.261Z,10.63
2022-10-11T10:17:36.149Z,10.57
2022-10-11T10:20:05.749Z,8.77
2022-10-11T10:22:35.100Z,7.80
2022-10-11T10:25:08.136Z,12.90
2022-10-11T10:27:35.225Z,11.00
2022-10-11T10:30:02.056Z,10.87
2022-10-11T10:32:33.979Z,7.67
2022-10-11T10:35:06.735Z,9.17
2022-10-11T10:37:53.931Z,10.73
2022-10-11T10:40:23.298Z,7.60
2022-10-11T10:42:50.439Z,7.47
2022-10-11T10:45:21.455Z,8.67
2022-10-11T10:47:52.220Z,5.53
2022-10-11T10:50:25.931Z,5.20
2022-10-11T10:53:22.172Z,7.50
2022-10-11T10:55:54.069Z,6.97
2022-10-11T10:58:39.300Z,6.43
2022-10-11T11:01:13.064Z,7.67
2022-10-11T11:03:43.023Z,6.50
2022-10-11T11:06:13.840Z,7.50
2022-10-11T11:08:40.757Z,7.60
2022-10-11T11:11:26.293Z,7.10
2022-10-11T11:13:53.044Z,8.50
2022-10-11T11:16:19.888Z,5.77
2022-10-11T11:18:58.040Z,5.27
2022-10-11T11:21:43.346Z,8.23
2022-10-11T11:24:25.968Z,4.73
2022-10-11T11:26:58.148Z,4.63
2022-10-11T11:29:43.887Z,4.83
2022-10-11T11:32:16.464Z,8.33
2022-10-11T11:35:06.664Z,6.00
2022-10-11T11:37:33.525Z,3.23
2022-10-11T11:40:06.001Z,8.43
2022-10-11T11:42:48.881Z,7.00
2022-10-11T11:45:18.943Z,5.60
2022-10-11T11:47:50.242Z,5.97
2022-10-11T11:50:25.214Z,6.53
2022-10-11T11:52:54.460Z,6.13
2022-10-11T11:55:21.222Z,8.27
2022-10-11T11:57:57.006Z,7.57
2022-10-11T12:00:25.645Z,6.73
2022-10-11T12:03:03.735Z,5.60
2022-10-11T12:05:32.165Z,7.43
2022-10-11T12:08:01.156Z,5.03
2022-10-11T12:10:33.324Z,4.67
2022-10-11T12:13:07.792Z,5.20
2022-10-11T12:15:34.679Z,9.27
2022-10-11T12:18:03.137Z,9.13
2022-10-11T12:20:30.535Z,5.83
2022-10-11T12:23:01.574Z,8.37
2022-10-11T12:25:33.418Z,8.73
2022-10-11T12:28:01.839Z,3.17
2022-10-11T12:30:53.572Z,5.77
2022-10-11T12:33:22.386Z,8.00
2022-10-11T12:35:55.216Z,4.97
2022-10-11T12:38:34.091Z,8.43
2022-10-11T12:41:10.396Z,7.77
2022-10-11T12:43:49.301Z,6.03
2022-10-11T12:46:28.276Z,2.93
2022-10-11T12:49:04.011Z,2.47
2022-10-11T12:51:39.116Z,4.57
2022-10-11T12:54:36.765Z,4.27
2022-10-11T12:57:12.091Z,1.20
2022-10-11T12:59:43.318Z,7.30
2022-10-11T13:02:29.108Z,4.87
2022-10-11T13:05:15.603Z,5.10
2022-10-11T13:07:42.988Z,2.47
2022-10-11T13:10:14.942Z,4.80
2022-10-11T13:12:43.076Z,4.63
2022-10-11T13:15:14.837Z,3.33
2022-10-11T13:17:42.170Z,2.70
2022-10-11T13:20:18.399Z,3.97
2022-10-11T13:22:47.652Z,5.60
2022-10-11T13:25:18.537Z,3.23
2022-10-11T13:27:46.082Z,5.70
2022-10-11T13:30:24.963Z,4.53
2022-10-11T13:32:52.341Z,5.80
2022-10-11T13:35:36.519Z,2.73
2022-10-11T13:38:04.324Z,8.53
2022-10-11T13:40:31.809Z,5.03
2022-10-11T13:42:58.886Z,4.23
2022-10-11T13:45:26.802Z,6.40
2022-10-11T13:47:54.601Z,3.63
2022-10-11T13:50:23.532Z,4.73
2022-10-11T13:52:56.447Z,6.63
2022-10-11T13:55:23.327Z,4.23
2022-10-11T13:57:52.393Z,6.40
2022-10-11T14:00:24.736Z,3.97
2022-10-11T14:02:56.221Z,8.27
2022-10-11T14:05:23.234Z,8.37
2022-10-11T14:07:50.043Z,7.20
2022-10-11T14:10:21.392Z,8.73
2022-10-11T14:12:59.157Z,5.63
2022-10-11T14:15:31.295Z,2.57
2022-10-11T14:17:58.495Z,4.13
2022-10-11T14:20:33.682Z,7.20
2022-10-11T14:23:00.485Z,3.10
2022-10-11T14:25:27.336Z,3.57
2022-10-11T14:27:55.244Z,5.33
2022-10-11T14:30:27.348Z,6.37
2022-10-11T14:32:56.485Z,7.13
2022-10-11T14:35:28.212Z,6.13
2022-10-11T14:37:55.142Z,5.17
2022-10-11T14:40:26.299Z,4.13
2022-10-11T14:42:53.212Z,3.40
2022-10-11T14:45:21.524Z,7.03
2022-10-11T14:47:48.506Z,6.40
2022-10-11T14:50:30.575Z,8.23
2022-10-11T14:52:57.479Z,7.33
2022-10-11T14:55:24.647Z,4.33
2022-10-11T14:57:51.448Z,5.10
2022-10-11T15:00:20.826Z,7.77
2022-10-11T15:02:47.683Z,2.87
2022-10-11T15:05:14.551Z,5.97
2022-10-11T15:07:41.623Z,4.50
2022-10-11T15:10:22.326Z,6.47
2022-10-11T15:12:50.176Z,4.47
2022-10-11T15:15:20.671Z,5.07
2022-10-11T15:17:48.388Z,4.60
2022-10-11T15:20:29.220Z,2.13
2022-10-11T15:22:56.712Z,13.57
2022-10-11T15:25:23.911Z,7.30
2022-10-11T15:27:51.589Z,6.47
2022-10-11T15:30:18.294Z,5.37
2022-10-11T15:32:45.290Z,5.57
2022-10-11T15:35:12.197Z,4.87
2022-10-11T15:37:39.121Z,4.40
2022-10-11T15:40:16.293Z,3.37
2022-10-11T15:42:43.555Z,5.40
2022-10-11T15:45:11.046Z,8.00
2022-10-11T15:47:38.107Z,9.70
2022-10-11T15:50:13.699Z,5.83
2022-10-11T15:52:40.618Z,4.70
2022-10-11T15:55:07.541Z,5.03
2022-10-11T15:57:34.446Z,7.33
2022-10-11T16:00:01.693Z,4.27
2022-10-11T16:02:39.252Z,3.57
2022-10-11T16:05:06.178Z,4.27
2022-10-11T16:07:33.090Z,5.10
2022-10-11T16:09:59.905Z,9.53
2022-10-11T16:12:26.821Z,5.40
2022-10-11T16:14:53.681Z,8.50
2022-10-11T16:17:20.491Z,14.80
2022-10-11T16:19:47.412Z,20.13
2022-10-11T16:22:14.217Z,9.60
2022-10-11T16:24:40.976Z,17.17
2022-10-11T16:27:07.967Z,11.63
2022-10-11T16:29:34.734Z,11.83
2022-10-11T16:32:01.622Z,10.63
2022-10-11T16:34:29.019Z,10.63
2022-10-11T16:36:55.931Z,8.57
2022-10-11T16:39:24.087Z,8.43
2022-10-11T16:41:51.037Z,10.07
2022-10-11T16:44:19.743Z,7.80
2022-10-11T16:46:50.238Z,6.20
2022-10-11T16:49:22.192Z,11.00
2022-10-11T16:51:49.675Z,5.70
2022-10-11T16:54:20.556Z,13.80
2022-10-11T16:56:48.524Z,11.40
2022-10-11T16:59:15.545Z,14.40
2022-10-11T17:01:42.963Z,19.07
2022-10-11T17:04:09.925Z,23.97
2022-10-11T17:06:36.902Z,15.87
2022-10-11T17:09:04.453Z,20.07
2022-10-11T17:11:31.270Z,30.83
2022-10-11T17:14:00.458Z,80.97
2022-10-11T17:16:27.405Z,33.97
2022-10-11T17:18:54.183Z,57.23
2022-10-11T17:21:21.924Z,56.60
2022-10-11T17:23:49.302Z,38.63
2022-10-11T17:26:18.250Z,19.80
2022-10-11T17:28:45.774Z,24.83
2022-10-11T17:31:12.694Z,30.77
2022-10-11T17:33:39.699Z,36.80
2022-10-11T17:36:17.436Z,36.00
2022-10-11T17:38:44.681Z,39.90
2022-10-11T17:41:11.916Z,37.67
2022-10-11T17:43:39.135Z,44.40
2022-10-11T17:46:07.286Z,39.30
2022-10-11T17:48:36.777Z,29.27
2022-10-11T17:51:08.259Z,40.20
2022-10-11T17:53:35.670Z,43.50
2022-10-11T17:56:09.272Z,38.93
2022-10-11T17:58:36.544Z,37.53
2022-10-11T18:01:05.176Z,33.67
2022-10-11T18:03:32.613Z,31.00
2022-10-11T18:06:02.234Z,30.37
2022-10-11T18:08:29.504Z,26.00
2022-10-11T18:10:56.577Z,26.33
2022-10-11T18:13:23.318Z,23.37
2022-10-11T18:15:53.618Z,28.13
2022-10-11T18:18:21.044Z,20.80
2022-10-11T18:20:48.641Z,17.73
2022-10-11T18:23:20.487Z,18.67
2022-10-11T18:25:51.050Z,16.37
2022-10-11T18:28:18.196Z,19.70
2022-10-11T18:30:46.006Z,18.27
2022-10-11T18:33:13.264Z,18.00
2022-10-11T18:35:40.549Z,22.90
2022-10-11T18:38:07.604Z,23.63
2022-10-11T18:40:40.420Z,23.87
2022-10-11T18:43:10.922Z,24.80
2022-10-11T18:45:38.418Z,24.77
2022-10-11T18:48:05.766Z,20.97
2022-10-11T18:50:35.147Z,13.80
2022-10-11T18:53:02.309Z,17.10
2022-10-11T18:55:29.248Z,12.33
2022-10-11T18:57:56.377Z,14.40
2022-10-11T19:00:40.183Z,16.47
2022-10-11T19:03:07.835Z,17.67
2022-10-11T19:05:34.760Z,17.13
2022-10-11T19:08:01.669Z,16.40
2022-10-11T19:10:28.584Z,13.17
2022-10-11T19:12:55.387Z,16.53
2022-10-11T19:15:26.478Z,17.00
2022-10-11T19:17:55.613Z,17.97
2022-10-11T19:20:22.562Z,15.73
2022-10-11T19:22:49.428Z,25.20
2022-10-11T19:25:16.334Z,27.63
2022-10-11T19:27:43.095Z,20.13
2022-10-11T19:30:10.154Z,18.70
2022-10-11T19:32:37.046Z,12.30
2022-10-11T19:35:03.938Z,15.83
2022-10-11T19:37:31.086Z,14.43
2022-10-11T19:39:58.210Z,15.97
2022-10-11T19:42:25.103Z,10.23
2022-10-11T19:44:52.192Z,17.53
2022-10-11T19:47:18.992Z,13.73
2022-10-11T19:49:45.936Z,14.70
2022-10-11T19:52:13.952Z,17.70
2022-10-11T19:54:40.814Z,11.27
2022-10-11T19:57:09.643Z,15.67
2022-10-11T19:59:36.584Z,12.80
2022-10-11T20:02:03.498Z,16.97
2022-10-11T20:07:17.931Z,18.93
2022-10-11T20:09:44.866Z,20.80
2022-10-11T20:12:11.896Z,20.33
2022-10-11T20:14:38.841Z,16.73
2022-10-11T20:17:05.818Z,17.40
2022-10-11T20:19:32.670Z,17.73
2022-10-11T20:22:00.360Z,18.80
2022-10-11T20:24:29.130Z,23.47
2022-10-11T20:26:55.915Z,21.67
2022-10-11T20:29:23.973Z,25.83
2022-10-11T20:31:51.165Z,20.87
2022-10-11T20:34:18.102Z,25.83
2022-10-11T20:36:48.931Z,16.07
2022-10-11T20:39:16.466Z,18.47
2022-10-11T20:41:45.040Z,34.93
2022-10-11T20:44:13.354Z,27.23
2022-10-11T20:46:40.302Z,22.47
2022-10-11T20:49:08.621Z,14.80
2022-10-11T20:51:36.359Z,19.20
2022-10-11T20:54:04.869Z,19.23
2022-10-11T20:56:31.904Z,22.97
2022-10-11T20:58:58.895Z,25.57
2022-10-11T21:01:27.363Z,19.33
2022-10-11T21:03:54.306Z,32.30
2022-10-11T21:06:21.272Z,21.87
2022-10-11T21:08:48.456Z,9.97
2022-10-11T21:11:15.388Z,9.10
2022-10-11T21:13:42.351Z,10.40
2022-10-11T21:16:11.985Z,15.27
2022-10-11T21:18:38.781Z,14.27
2022-10-11T21:21:09.911Z,18.20
2022-10-11T21:23:36.911Z,17.60
2022-10-11T21:26:04.190Z,19.57
2022-10-11T21:28:31.274Z,19.67
2022-10-11T21:31:05.536Z,15.83
2022-10-11T21:33:33.119Z,16.63
2022-10-11T21:36:03.176Z,17.30
2022-10-11T21:38:30.077Z,18.00
2022-10-11T21:40:57.046Z,15.20
2022-10-11T21:43:24.942Z,15.93
2022-10-11T21:45:51.961Z,14.70
2022-10-11T21:48:18.697Z,14.80
2022-10-11T21:50:52.041Z,16.70
2022-10-11T21:53:18.899Z,14.93
2022-10-11T21:55:45.660Z,14.00
2022-10-11T21:58:12.564Z,16.77
2022-10-11T22:00:39.507Z,17.43
2022-10-11T22:03:06.300Z,17.23
2022-10-11T22:05:33.087Z,16.57
2022-10-11T22:07:59.962Z,21.20
2022-10-11T22:10:26.967Z,16.20
2022-10-11T22:12:53.800Z,20.70
2022-10-11T22:15:20.650Z,21.90
2022-10-11T22:17:47.634Z,18.20
2022-10-11T22:20:14.908Z,19.13
2022-10-11T22:22:41.659Z,18.30
2022-10-11T22:25:09.086Z,15.50
2022-10-11T22:27:35.879Z,17.47
2022-10-11T22:30:02.657Z,15.67
2022-10-11T22:32:29.576Z,19.97
2022-10-11T22:34:56.437Z,17.80
2022-10-11T22:37:23.444Z,14.97
2022-10-11T22:39:50.615Z,17.07
2022-10-11T22:42:17.422Z,17.27
2022-10-11T22:44:44.275Z,20.70
2022-10-11T22:47:11.097Z,15.50
2022-10-11T22:49:38.056Z,21.13
2022-10-11T22:52:04.937Z,22.87
2022-10-11T22:54:31.694Z,17.33
2022-10-11T22:56:58.578Z,18.53
2022-10-11T22:59:25.357Z,15.50
2022-10-11T23:01:52.265Z,19.27
2022-10-11T23:04:19.417Z,18.97
2022-10-11T23:06:46.340Z,18.57
2022-10-11T23:09:13.162Z,17.23
2022-10-11T23:11:40.114Z,17.67
2022-10-11T23:14:06.915Z,20.07
2022-10-11T23:16:33.754Z,19.13
2022-10-11T23:19:00.834Z,20.33
2022-10-11T23:21:27.763Z,18.50
2022-10-11T23:23:54.995Z,19.70
2022-10-11T23:26:21.915Z,20.40
2022-10-11T23:28:48.738Z,17.17
2022-10-11T23:31:17.096Z,20.73
2022-10-11T23:33:44.414Z,18.30
2022-10-11T23:36:15.152Z,18.77
2022-10-11T23:38:42.067Z,19.43
2022-10-11T23:41:08.843Z,19.43
2022-10-11T23:43:35.631Z,19.50
2022-10-11T23:46:02.571Z,25.57
2022-10-11T23:48:30.120Z,21.33
2022-10-11T23:50:56.953Z,20.10
2022-10-11T23:53:23.919Z,18.50
2022-10-11T23:55:50.940Z,20.23
2022-10-11T23:58:17.809Z,18.37
